Vidfoss — V2QK4 — position and weather

sailwx.info

Track history (hours):
 
Tides and Currents Weather Stations Pressure Air Temp Water Temp Dewpoint Dewpoint Depression Visibility Wind Speed Wind Dir Waves Ship Positions

Vidfoss

Last reported at 2016-Jun-26 16:14 UTC. Time now 2016-Jun-27 06:05 UTC.
Position N 69°15' E 017°58'.

Length 93 m; draft 5.1 m.

Type: Cargo ship. MMSI: 305846000.

Date/timePositionNaut miles runAvg speedWind from/ knotsBaromVisibWave heightAir tempDewpointWater temp
2016-Jun-26 16:14N 69°15' E 017°58'6 8.6
2016-Jun-26 15:33N 69°10' E 017°56'125 5.6
2016-Jun-25 17:19N 67°33' E 014°21'912.1
2016-Jun-25 16:33N 67°24' E 014°27'1212.2
2016-Jun-25 15:33N 67°14' E 014°10'1412.4
2016-Jun-25 14:26N 67°03' E 013°50'1111.4
2016-Jun-25 13:26N 66°55' E 013°29'11611.2
2016-Jun-25 03:06N 65°06' E 011°48'712.0
2016-Jun-25 02:33N 65°01' E 011°40'1211.9
2016-Jun-25 01:33N 64°53' E 011°18'8710.8
2016-Jun-24 17:33N 63°40' E 009°29'1110.5
2016-Jun-24 16:33N 63°32' E 009°14'3411.4
2016-Jun-24 13:31N 63°16' E 008°06'1111.7
2016-Jun-24 12:33N 63°10' E 007°45'211 9.6
2016-Jun-23 14:33N 59°49' E 005°33'3610.4
2016-Jun-23 11:07N 59°14' E 005°21'611.3
2016-Jun-23 10:33N 59°08' E 005°25'1111.2
2016-Jun-23 09:33N 59°02' E 005°43'5 5.1
2016-Jun-23 08:33N 58°57' E 005°45'0 0.0
2016-Jun-23 07:33N 58°57' E 005°45'4 2.0
2016-Jun-23 05:33N 59°00' E 005°48'8 7.7
2016-Jun-23 04:33N 58°59' E 005°33'1211.9
2016-Jun-23 03:33N 58°48' E 005°26'1212.1
2016-Jun-23 02:33N 58°36' E 005°24'26712.1
2016-Jun-22 04:30N 54°08' E 005°09'5211.6
2016-Jun-22 00:03N 53°20' E 004°38'611.0
2016-Jun-21 23:33N 53°15' E 004°35'3511.4
2016-Jun-21 20:29N 52°40' E 004°30'1010.6
2016-Jun-21 19:33N 52°30' E 004°30'5 4.6
2016-Jun-21 18:33N 52°28' E 004°37'1 1.3
2016-Jun-21 17:33N 52°28' E 004°39'1 0.7
2016-Jun-21 16:33N 52°28' E 004°40'0 0.0
2016-Jun-21 15:32N 52°28' E 004°40'0 0.0
2016-Jun-21 14:33N 52°28' E 004°40'0 0.0
2016-Jun-21 13:33N 52°28' E 004°40'0 0.0
2016-Jun-21 12:34N 52°28' E 004°40'0 0.0
2016-Jun-21 11:34N 52°28' E 004°40'0 0.0
2016-Jun-21 10:33N 52°28' E 004°40'0 0.0
2016-Jun-21 09:33N 52°28' E 004°40'0 0.0
2016-Jun-21 08:33N 52°28' E 004°40'0 0.0
2016-Jun-21 07:33N 52°28' E 004°40'0 0.0
2016-Jun-21 06:33N 52°28' E 004°40'0 0.0
2016-Jun-21 04:33N 52°28' E 004°40'0 0.0
2016-Jun-21 03:33N 52°28' E 004°40'0 0.0
2016-Jun-21 02:33N 52°28' E 004°40'0 0.0
2016-Jun-21 01:33N 52°28' E 004°40'0 0.0
2016-Jun-21 00:33N 52°28' E 004°40'0 0.0
2016-Jun-20 23:33N 52°28' E 004°40'0 0.0
2016-Jun-20 22:33N 52°28' E 004°40'0 0.0
2016-Jun-20 21:33N 52°28' E 004°40'0 0.0
2016-Jun-20 20:33N 52°28' E 004°40'0 0.0
2016-Jun-20 19:33N 52°28' E 004°40'0 0.0
2016-Jun-20 18:33N 52°28' E 004°40'0 0.0
2016-Jun-20 17:33N 52°28' E 004°40'0 0.0
2016-Jun-20 16:33N 52°28' E 004°40'0 0.0
2016-Jun-20 15:33N 52°28' E 004°40'0 0.0
2016-Jun-20 14:33N 52°28' E 004°40'0 0.0
2016-Jun-20 13:33N 52°28' E 004°40'0 0.0
2016-Jun-20 12:33N 52°28' E 004°40'0 0.0
2016-Jun-20 11:33N 52°28' E 004°40'0 0.0
2016-Jun-20 10:33N 52°28' E 004°40'0 0.0
2016-Jun-20 09:33N 52°28' E 004°40'0 0.0
2016-Jun-20 08:33N 52°28' E 004°40'0 0.0
2016-Jun-20 07:34N 52°28' E 004°40'0 0.0
2016-Jun-20 06:33N 52°28' E 004°40'0 0.0
2016-Jun-20 05:33N 52°28' E 004°40'0 0.0
2016-Jun-20 04:34N 52°28' E 004°40'0 0.0
2016-Jun-20 03:33N 52°28' E 004°40'0 0.0
2016-Jun-20 02:33N 52°28' E 004°40'0 0.0
2016-Jun-20 01:33N 52°28' E 004°40'0 0.0
2016-Jun-20 00:33N 52°28' E 004°40'0 0.0
2016-Jun-19 23:33N 52°28' E 004°40'0 0.0
2016-Jun-19 22:33N 52°28' E 004°40'0 0.0
2016-Jun-19 21:33N 52°28' E 004°40'0 0.0
2016-Jun-19 20:33N 52°28' E 004°40'2 1.8
2016-Jun-19 19:34N 52°28' E 004°37'4 3.9
2016-Jun-19 18:33N 52°28' E 004°31'1110.6
2016-Jun-19 17:33N 52°39' E 004°30'9 8.9
2016-Jun-19 16:33N 52°48' E 004°30'56111.9
2016-Jun-17 17:32N 62°09' E 004°51'  
Track history (hours):
 
Tides and Currents Weather Stations Pressure Air Temp Water Temp Dewpoint Dewpoint Depression Visibility Wind Speed Wind Dir Waves Ship Positions

Vidfoss

Last reported at 2016-Jun-26 16:14 UTC. Time now 2016-Jun-27 06:05 UTC.
Position N 69°15' E 017°58'.

Length 93 m; draft 5.1 m.

Type: Cargo ship. MMSI: 305846000.

Date/timePositionNaut miles runAvg speedWind from/ knotsBaromVisibWave heightAir tempDewpointWater temp
2016-Jun-26 16:14N 69°15' E 017°58'6 8.6
2016-Jun-26 15:33N 69°10' E 017°56'125 5.6
2016-Jun-25 17:19N 67°33' E 014°21'912.1
2016-Jun-25 16:33N 67°24' E 014°27'1212.2
2016-Jun-25 15:33N 67°14' E 014°10'1412.4
2016-Jun-25 14:26N 67°03' E 013°50'1111.4
2016-Jun-25 13:26N 66°55' E 013°29'11611.2
2016-Jun-25 03:06N 65°06' E 011°48'712.0
2016-Jun-25 02:33N 65°01' E 011°40'1211.9
2016-Jun-25 01:33N 64°53' E 011°18'8710.8
2016-Jun-24 17:33N 63°40' E 009°29'1110.5
2016-Jun-24 16:33N 63°32' E 009°14'3411.4
2016-Jun-24 13:31N 63°16' E 008°06'1111.7
2016-Jun-24 12:33N 63°10' E 007°45'211 9.6
2016-Jun-23 14:33N 59°49' E 005°33'3610.4
2016-Jun-23 11:07N 59°14' E 005°21'611.3
2016-Jun-23 10:33N 59°08' E 005°25'1111.2
2016-Jun-23 09:33N 59°02' E 005°43'5 5.1
2016-Jun-23 08:33N 58°57' E 005°45'0 0.0
2016-Jun-23 07:33N 58°57' E 005°45'4 2.0
2016-Jun-23 05:33N 59°00' E 005°48'8 7.7
2016-Jun-23 04:33N 58°59' E 005°33'1211.9
2016-Jun-23 03:33N 58°48' E 005°26'1212.1
2016-Jun-23 02:33N 58°36' E 005°24'26712.1
2016-Jun-22 04:30N 54°08' E 005°09'5211.6
2016-Jun-22 00:03N 53°20' E 004°38'611.0
2016-Jun-21 23:33N 53°15' E 004°35'3511.4
2016-Jun-21 20:29N 52°40' E 004°30'1010.6
2016-Jun-21 19:33N 52°30' E 004°30'5 4.6
2016-Jun-21 18:33N 52°28' E 004°37'1 1.3
2016-Jun-21 17:33N 52°28' E 004°39'1 0.7
2016-Jun-21 16:33N 52°28' E 004°40'0 0.0
2016-Jun-21 15:32N 52°28' E 004°40'0 0.0
2016-Jun-21 14:33N 52°28' E 004°40'0 0.0
2016-Jun-21 13:33N 52°28' E 004°40'0 0.0
2016-Jun-21 12:34N 52°28' E 004°40'0 0.0
2016-Jun-21 11:34N 52°28' E 004°40'0 0.0
2016-Jun-21 10:33N 52°28' E 004°40'0 0.0
2016-Jun-21 09:33N 52°28' E 004°40'0 0.0
2016-Jun-21 08:33N 52°28' E 004°40'0 0.0
2016-Jun-21 07:33N 52°28' E 004°40'0 0.0
2016-Jun-21 06:33N 52°28' E 004°40'0 0.0
2016-Jun-21 04:33N 52°28' E 004°40'0 0.0
2016-Jun-21 03:33N 52°28' E 004°40'0 0.0
2016-Jun-21 02:33N 52°28' E 004°40'0 0.0
2016-Jun-21 01:33N 52°28' E 004°40'0 0.0
2016-Jun-21 00:33N 52°28' E 004°40'0 0.0
2016-Jun-20 23:33N 52°28' E 004°40'0 0.0
2016-Jun-20 22:33N 52°28' E 004°40'0 0.0
2016-Jun-20 21:33N 52°28' E 004°40'0 0.0
2016-Jun-20 20:33N 52°28' E 004°40'0 0.0
2016-Jun-20 19:33N 52°28' E 004°40'0 0.0
2016-Jun-20 18:33N 52°28' E 004°40'0 0.0
2016-Jun-20 17:33N 52°28' E 004°40'0 0.0
2016-Jun-20 16:33N 52°28' E 004°40'0 0.0
2016-Jun-20 15:33N 52°28' E 004°40'0 0.0
2016-Jun-20 14:33N 52°28' E 004°40'0 0.0
2016-Jun-20 13:33N 52°28' E 004°40'0 0.0
2016-Jun-20 12:33N 52°28' E 004°40'0 0.0
2016-Jun-20 11:33N 52°28' E 004°40'0 0.0
2016-Jun-20 10:33N 52°28' E 004°40'0 0.0
2016-Jun-20 09:33N 52°28' E 004°40'0 0.0
2016-Jun-20 08:33N 52°28' E 004°40'0 0.0
2016-Jun-20 07:34N 52°28' E 004°40'0 0.0
2016-Jun-20 06:33N 52°28' E 004°40'0 0.0
2016-Jun-20 05:33N 52°28' E 004°40'0 0.0
2016-Jun-20 04:34N 52°28' E 004°40'0 0.0
2016-Jun-20 03:33N 52°28' E 004°40'0 0.0
2016-Jun-20 02:33N 52°28' E 004°40'0 0.0
2016-Jun-20 01:33N 52°28' E 004°40'0 0.0
2016-Jun-20 00:33N 52°28' E 004°40'0 0.0
2016-Jun-19 23:33N 52°28' E 004°40'0 0.0
2016-Jun-19 22:33N 52°28' E 004°40'0 0.0
2016-Jun-19 21:33N 52°28' E 004°40'0 0.0
2016-Jun-19 20:33N 52°28' E 004°40'2 1.8
2016-Jun-19 19:34N 52°28' E 004°37'4 3.9
2016-Jun-19 18:33N 52°28' E 004°31'1110.6
2016-Jun-19 17:33N 52°39' E 004°30'9 8.9
2016-Jun-19 16:33N 52°48' E 004°30'56111.9
2016-Jun-17 17:32N 62°09' E 004°51'  

Dump ship's entire track history